Terminal Aerodrome Forecast
Issued by NWS Louisville, KY

Home | Current Version | Previous Version | Text Only | Print | Product List | Glossary On
Versions: 1 2 3 4 5 6 7 8 9 10 11 12 13 14 15 16 17
623
FTUS43 KLMK 230529
TAFLEX
TAF
KLEX 230529Z 2306/2406 VRB04KT P6SM BKN070
     FM231100 VRB04KT 4SM BR BKN015
     FM231300 03005KT P6SM SCT080=

USA.gov is the U.S. government's official web portal to all federal, state and local government web resources and services.